createdAt,value
2018-11-14T00:00:25.627Z,89.73
2018-11-14T00:02:54.482Z,90.00
2018-11-14T00:05:23.377Z,90.31
2018-11-14T00:07:52.143Z,90.27
2018-11-14T00:10:21.020Z,89.70
2018-11-14T00:12:50.141Z,89.56
2018-11-14T00:15:21.178Z,89.77
2018-11-14T00:17:50.636Z,89.85
2018-11-14T00:20:19.547Z,90.01
2018-11-14T00:22:49.327Z,90.31
2018-11-14T00:25:18.590Z,90.38
2018-11-14T00:27:47.711Z,89.79
2018-11-14T00:30:19.963Z,89.57
2018-11-14T00:32:48.815Z,89.92
2018-11-14T00:35:17.641Z,89.95
2018-11-14T00:37:46.903Z,89.97
2018-11-14T00:40:16.664Z,90.20
2018-11-14T00:42:46.214Z,89.95
2018-11-14T00:45:17.387Z,89.82
2018-11-14T00:47:47.237Z,89.90
2018-11-14T00:50:16.949Z,89.56
2018-11-14T00:52:46.622Z,89.85
2018-11-14T00:55:23.649Z,89.89
2018-11-14T00:57:53.618Z,90.44
2018-11-14T01:00:23.620Z,90.48
2018-11-14T01:02:52.559Z,90.59
2018-11-14T01:05:21.548Z,90.40
2018-11-14T01:07:50.398Z,90.37
2018-11-14T01:10:20.528Z,90.33
2018-11-14T01:12:49.897Z,90.16
2018-11-14T01:15:19.930Z,90.79
2018-11-14T01:17:48.800Z,90.55
2018-11-14T01:20:19.844Z,90.84
2018-11-14T01:22:48.885Z,90.77
2018-11-14T01:25:18.752Z,90.45
2018-11-14T01:27:47.905Z,90.54
2018-11-14T01:30:20.487Z,91.06
2018-11-14T01:32:49.751Z,91.14
2018-11-14T01:35:18.964Z,90.71
2018-11-14T01:37:48.201Z,91.19
2018-11-14T01:40:20.991Z,91.12
2018-11-14T01:42:51.058Z,90.81
2018-11-14T01:45:20.059Z,91.42
2018-11-14T01:47:49.404Z,90.78
2018-11-14T01:50:18.360Z,90.64
2018-11-14T01:52:47.189Z,91.53
2018-11-14T01:55:17.152Z,91.64
2018-11-14T01:57:45.908Z,91.97
2018-11-14T02:00:16.883Z,91.24
2018-11-14T02:02:46.026Z,90.98
2018-11-14T02:05:14.932Z,91.24
2018-11-14T02:07:43.731Z,91.60
2018-11-14T02:10:14.427Z,91.23
2018-11-14T02:12:43.810Z,91.70
2018-11-14T02:15:14.727Z,91.50
2018-11-14T02:17:43.505Z,91.24
2018-11-14T02:20:12.855Z,91.68
2018-11-14T02:22:42.311Z,91.62
2018-11-14T02:25:12.097Z,91.31
2018-11-14T02:27:41.226Z,91.94
2018-11-14T02:30:24.098Z,92.02
2018-11-14T02:32:53.041Z,92.12
2018-11-14T02:35:21.895Z,92.17
2018-11-14T02:37:50.716Z,92.10
2018-11-14T02:40:21.411Z,91.87
2018-11-14T02:42:50.487Z,92.07
2018-11-14T02:45:19.759Z,91.63
2018-11-14T02:47:48.605Z,91.94
2018-11-14T02:50:18.188Z,91.35
2018-11-14T02:52:47.158Z,91.46
2018-11-14T02:55:17.004Z,91.40
2018-11-14T02:57:46.308Z,92.22
2018-11-14T03:00:17.658Z,91.86
2018-11-14T03:02:46.457Z,92.22
2018-11-14T03:05:15.349Z,91.96
2018-11-14T03:07:44.248Z,91.90
2018-11-14T03:10:15.902Z,92.36
2018-11-14T03:12:45.072Z,91.89
2018-11-14T03:15:16.176Z,92.31
2018-11-14T03:17:45.351Z,92.11
2018-11-14T03:20:16.356Z,92.26
2018-11-14T03:22:45.242Z,92.82
2018-11-14T03:25:14.900Z,92.11
2018-11-14T03:27:44.191Z,92.72
2018-11-14T03:30:14.856Z,92.37
2018-11-14T03:32:44.292Z,92.76
2018-11-14T03:35:13.852Z,92.49
2018-11-14T03:37:42.664Z,92.63
2018-11-14T03:40:13.632Z,92.94
2018-11-14T03:42:42.824Z,93.23
2018-11-14T03:45:12.865Z,93.09
2018-11-14T03:47:42.371Z,93.04
2018-11-14T03:50:11.850Z,93.07
2018-11-14T03:52:40.659Z,92.99
2018-11-14T03:55:09.577Z,93.54
2018-11-14T03:57:38.484Z,93.16
2018-11-14T04:00:10.553Z,93.63
2018-11-14T04:02:39.472Z,93.20
2018-11-14T04:05:08.818Z,93.37
2018-11-14T04:07:37.663Z,94.07
2018-11-14T04:10:07.792Z,94.06
2018-11-14T04:12:36.790Z,94.00
2018-11-14T04:15:06.532Z,93.56
2018-11-14T04:17:35.874Z,94.03
2018-11-14T04:20:04.941Z,93.85
2018-11-14T04:22:33.760Z,94.02
2018-11-14T04:25:02.616Z,93.53
2018-11-14T04:27:31.458Z,93.87
2018-11-14T04:30:00.348Z,93.29
2018-11-14T04:32:29.516Z,93.86
2018-11-14T04:34:58.757Z,93.50
2018-11-14T04:37:27.622Z,93.47
2018-11-14T04:39:56.655Z,93.25
2018-11-14T04:42:25.539Z,93.20
2018-11-14T04:44:54.407Z,93.37
2018-11-14T04:47:23.480Z,93.42
2018-11-14T04:49:52.329Z,93.30
2018-11-14T04:52:21.414Z,93.43
2018-11-14T04:54:50.263Z,94.17
2018-11-14T04:57:19.164Z,94.05
2018-11-14T04:59:48.050Z,94.52
2018-11-14T05:02:16.926Z,94.19
2018-11-14T05:04:45.694Z,93.93
2018-11-14T05:07:14.805Z,94.48
2018-11-14T05:09:43.662Z,94.23
2018-11-14T05:12:12.572Z,94.87
2018-11-14T05:14:41.701Z,94.47
2018-11-14T05:17:10.478Z,94.50
2018-11-14T05:19:39.289Z,94.28
2018-11-14T05:22:08.172Z,93.87
2018-11-14T05:24:37.407Z,94.47
2018-11-14T05:27:06.513Z,94.58
2018-11-14T05:29:36.297Z,94.05
2018-11-14T05:32:06.033Z,94.41
2018-11-14T05:34:34.852Z,94.00
2018-11-14T05:37:03.701Z,93.65
2018-11-14T05:39:32.870Z,94.15
2018-11-14T05:42:01.740Z,93.68
2018-11-14T05:44:30.667Z,93.87
2018-11-14T05:46:59.487Z,94.50
2018-11-14T05:49:28.721Z,94.21
2018-11-14T05:51:57.512Z,94.90
2018-11-14T05:54:26.343Z,94.53
2018-11-14T05:56:55.169Z,94.57
2018-11-14T05:59:24.629Z,94.57
2018-11-14T06:01:53.426Z,94.09
2018-11-14T06:04:22.240Z,95.03
2018-11-14T06:06:51.077Z,95.18
2018-11-14T06:09:20.317Z,94.67
2018-11-14T06:11:49.243Z,95.21
2018-11-14T06:14:18.230Z,95.08
2018-11-14T06:16:47.070Z,94.81
2018-11-14T06:19:16.008Z,95.03
2018-11-14T06:21:45.142Z,95.37
2018-11-14T06:24:14.013Z,95.00
2018-11-14T06:26:42.881Z,94.45
2018-11-14T06:29:11.789Z,95.00
2018-11-14T06:31:40.600Z,94.68
2018-11-14T06:34:09.421Z,94.94
2018-11-14T06:36:38.197Z,94.49
2018-11-14T06:39:09.862Z,94.99
2018-11-14T06:41:38.921Z,95.05
2018-11-14T06:44:09.288Z,95.43
2018-11-14T06:46:38.378Z,95.41
2018-11-14T06:49:07.228Z,95.56
2018-11-14T06:51:36.031Z,95.31
2018-11-14T06:54:04.939Z,95.12
2018-11-14T06:56:33.731Z,95.43
2018-11-14T06:59:02.675Z,95.57
2018-11-14T07:01:31.423Z,94.96
2018-11-14T07:04:00.237Z,94.98
2018-11-14T07:06:29.036Z,95.37
2018-11-14T07:08:57.902Z,94.86
2018-11-14T07:11:27.206Z,95.33
2018-11-14T07:13:56.499Z,95.04
2018-11-14T07:16:25.393Z,95.30
2018-11-14T07:18:54.704Z,95.43
2018-11-14T07:21:23.609Z,95.42
2018-11-14T07:23:52.614Z,95.21
2018-11-14T07:26:21.448Z,95.39
2018-11-14T07:28:50.617Z,95.09
2018-11-14T07:31:19.396Z,95.44
2018-11-14T07:33:48.241Z,95.38
2018-11-14T07:36:16.994Z,95.20
2018-11-14T07:38:46.945Z,95.18
2018-11-14T07:41:18.356Z,94.77
2018-11-14T07:43:47.611Z,94.38
2018-11-14T07:46:17.054Z,94.75
2018-11-14T07:48:47.017Z,94.37
2018-11-14T07:51:15.850Z,94.93
2018-11-14T07:53:44.686Z,94.12
2018-11-14T07:56:14.267Z,93.97
2018-11-14T07:58:43.073Z,94.58
2018-11-14T08:01:11.918Z,93.81
2018-11-14T08:03:40.782Z,94.32
2018-11-14T08:06:09.681Z,93.31
2018-11-14T08:08:38.593Z,94.08
2018-11-14T08:11:08.240Z,93.72
2018-11-14T08:13:38.782Z,93.79
2018-11-14T08:16:07.722Z,93.76
2018-11-14T08:18:36.972Z,93.33
2018-11-14T08:21:06.550Z,93.54
2018-11-14T08:23:35.720Z,93.10
2018-11-14T08:26:04.527Z,93.12
2018-11-14T08:28:33.338Z,92.99
2018-11-14T08:31:02.627Z,92.93
2018-11-14T08:33:31.449Z,92.36
2018-11-14T08:36:00.494Z,92.60
2018-11-14T08:38:29.258Z,92.34
2018-11-14T08:40:58.091Z,92.50
2018-11-14T08:43:26.906Z,92.58
2018-11-14T08:45:55.746Z,91.75
2018-11-14T08:48:24.607Z,91.89
2018-11-14T08:50:53.441Z,91.43
2018-11-14T08:53:22.391Z,92.24
2018-11-14T08:55:51.253Z,91.98
2018-11-14T08:58:20.095Z,91.39
2018-11-14T09:00:48.900Z,91.54
2018-11-14T09:03:17.990Z,91.78
2018-11-14T09:05:46.926Z,90.75
2018-11-14T09:08:15.966Z,90.86
2018-11-14T09:10:45.246Z,91.28
2018-11-14T09:13:15.807Z,90.24
2018-11-14T09:15:44.657Z,89.89
2018-11-14T09:18:13.525Z,89.76
2018-11-14T09:20:42.592Z,89.72
2018-11-14T09:23:11.884Z,89.17
2018-11-14T09:25:40.673Z,89.20
2018-11-14T09:28:09.793Z,88.48
2018-11-14T09:30:38.703Z,88.38
2018-11-14T09:33:07.564Z,88.37
2018-11-14T09:35:37.010Z,88.04
2018-11-14T09:38:06.065Z,86.83
2018-11-14T09:40:35.246Z,86.90
2018-11-14T09:43:04.163Z,86.81
2018-11-14T09:45:33.276Z,85.71
2018-11-14T09:48:02.431Z,86.73
2018-11-14T09:50:32.370Z,86.54
2018-11-14T09:53:04.356Z,86.92
2018-11-14T09:55:33.255Z,86.91
2018-11-14T09:58:02.102Z,86.64
2018-11-14T10:00:33.725Z,87.67
2018-11-14T10:03:06.077Z,87.29
2018-11-14T10:05:34.978Z,87.07
2018-11-14T10:08:03.836Z,86.64
2018-11-14T10:10:32.661Z,86.68
2018-11-14T10:13:01.510Z,84.93
2018-11-14T10:15:30.532Z,85.08
2018-11-14T10:17:59.415Z,85.31
2018-11-14T10:20:28.589Z,85.12
2018-11-14T10:22:57.364Z,84.71
2018-11-14T10:25:26.463Z,84.93
2018-11-14T10:27:55.595Z,84.89
2018-11-14T10:30:26.707Z,83.08
2018-11-14T10:32:55.629Z,83.54
2018-11-14T10:35:24.813Z,83.96
2018-11-14T10:37:53.927Z,84.08
2018-11-14T10:40:25.140Z,84.17
2018-11-14T10:42:54.054Z,84.32
2018-11-14T10:45:24.081Z,84.52
2018-11-14T10:47:52.949Z,84.23
2018-11-14T10:50:23.064Z,83.31
2018-11-14T10:52:51.910Z,83.63
2018-11-14T10:55:21.445Z,83.20
2018-11-14T10:57:50.351Z,82.42
2018-11-14T11:00:27.397Z,82.93
2018-11-14T11:03:01.579Z,82.63
2018-11-14T11:05:35.501Z,82.10
2018-11-14T11:08:09.811Z,81.91
2018-11-14T11:10:43.814Z,82.29
2018-11-14T11:13:18.881Z,82.37
2018-11-14T11:15:53.039Z,82.77
2018-11-14T11:18:25.812Z,82.96
2018-11-14T11:20:54.815Z,82.81
2018-11-14T11:23:23.926Z,82.26
2018-11-14T11:25:52.877Z,82.43
2018-11-14T11:28:22.015Z,83.04
2018-11-14T11:30:50.995Z,81.09
2018-11-14T11:33:19.802Z,81.79
2018-11-14T11:35:48.697Z,80.75
2018-11-14T11:38:17.721Z,81.38
2018-11-14T11:40:46.523Z,79.82
2018-11-14T11:43:15.511Z,80.51
2018-11-14T11:45:44.681Z,78.84
2018-11-14T11:48:13.529Z,79.26
2018-11-14T11:50:42.440Z,78.54
2018-11-14T11:53:11.296Z,80.26
2018-11-14T11:55:40.215Z,78.97
2018-11-14T11:58:09.080Z,79.06
2018-11-14T12:00:38.251Z,78.63
2018-11-14T12:03:06.904Z,78.24
2018-11-14T12:05:35.674Z,79.12
2018-11-14T12:08:04.545Z,78.85
2018-11-14T12:10:33.342Z,77.47
2018-11-14T12:13:02.824Z,78.43
2018-11-14T12:15:31.645Z,79.07
2018-11-14T12:18:00.545Z,78.49
2018-11-14T12:20:29.411Z,78.37
2018-11-14T12:22:58.230Z,78.23
2018-11-14T12:25:27.168Z,78.52
2018-11-14T12:27:56.111Z,79.31
2018-11-14T12:30:25.320Z,78.25
2018-11-14T12:32:54.150Z,77.68
2018-11-14T12:35:23.065Z,77.20
2018-11-14T12:37:52.125Z,77.98
2018-11-14T12:40:21.326Z,78.75
2018-11-14T12:42:50.216Z,77.40
2018-11-14T12:45:19.060Z,77.20
2018-11-14T12:47:47.883Z,77.59
2018-11-14T12:50:16.734Z,77.75
2018-11-14T12:52:45.539Z,77.61
2018-11-14T12:55:16.334Z,78.33
2018-11-14T12:57:45.140Z,77.44
2018-11-14T13:00:17.375Z,77.27
2018-11-14T13:02:46.192Z,77.22
2018-11-14T13:05:15.639Z,76.99
2018-11-14T13:07:45.097Z,77.40
2018-11-14T13:10:16.229Z,77.27
2018-11-14T13:12:46.621Z,78.07
2018-11-14T13:15:16.372Z,77.21
2018-11-14T13:17:45.400Z,77.19
2018-11-14T13:20:18.406Z,78.21
2018-11-14T13:22:47.266Z,77.87
2018-11-14T13:25:16.527Z,79.18
2018-11-14T13:27:46.664Z,77.65
2018-11-14T13:30:19.251Z,78.24
2018-11-14T13:32:48.915Z,78.08
2018-11-14T13:35:19.061Z,78.54
2018-11-14T13:37:48.754Z,78.58
2018-11-14T13:40:17.791Z,79.25
2018-11-14T13:42:47.083Z,79.75
2018-11-14T13:45:16.954Z,79.38
2018-11-14T13:47:46.128Z,80.22
2018-11-14T13:50:19.199Z,80.66
2018-11-14T13:52:47.893Z,81.03
2018-11-14T13:55:23.428Z,81.51
2018-11-14T13:57:53.061Z,81.62
2018-11-14T14:00:22.817Z,81.33
2018-11-14T14:02:52.825Z,81.38
2018-11-14T14:05:23.010Z,81.43
2018-11-14T14:07:51.839Z,81.14
2018-11-14T14:10:20.861Z,82.07
2018-11-14T14:12:51.090Z,82.00
2018-11-14T14:15:22.001Z,82.33
2018-11-14T14:17:51.242Z,82.47
2018-11-14T14:20:20.646Z,82.67
2018-11-14T14:22:49.462Z,82.59
2018-11-14T14:25:19.948Z,82.55
2018-11-14T14:27:48.949Z,83.11
2018-11-14T14:30:19.832Z,83.17
2018-11-14T14:32:49.301Z,82.89
2018-11-14T14:35:19.409Z,83.25
2018-11-14T14:37:48.277Z,83.37
2018-11-14T14:40:19.287Z,83.44
2018-11-14T14:42:48.407Z,83.25
2018-11-14T14:45:20.235Z,83.62
2018-11-14T14:47:49.255Z,83.67
2018-11-14T14:50:18.881Z,83.82
2018-11-14T14:52:47.820Z,84.59
2018-11-14T14:55:20.259Z,84.68
2018-11-14T14:57:49.785Z,85.00
2018-11-14T15:00:26.057Z,84.85
2018-11-14T15:02:55.003Z,85.34
2018-11-14T15:05:24.052Z,85.56
2018-11-14T15:07:53.244Z,85.74
2018-11-14T15:10:23.442Z,85.40
2018-11-14T15:12:52.381Z,86.01
2018-11-14T15:15:21.697Z,86.22
2018-11-14T15:17:50.527Z,86.38
2018-11-14T15:20:21.183Z,86.54
2018-11-14T15:22:49.977Z,86.70
2018-11-14T15:25:20.521Z,86.69
2018-11-14T15:27:49.870Z,86.38
2018-11-14T15:30:27.102Z,86.67
2018-11-14T15:32:55.986Z,87.29
2018-11-14T15:35:24.894Z,87.17
2018-11-14T15:37:53.730Z,86.97
2018-11-14T15:40:24.198Z,87.65
2018-11-14T15:42:53.615Z,87.43
2018-11-14T15:45:26.767Z,87.44
2018-11-14T15:47:55.652Z,88.08
2018-11-14T15:50:26.890Z,87.69
2018-11-14T15:52:56.567Z,87.86
2018-11-14T15:55:25.558Z,88.15
2018-11-14T15:57:54.494Z,88.29
2018-11-14T16:00:25.771Z,88.21
2018-11-14T16:02:56.869Z,87.87
2018-11-14T16:05:26.985Z,88.02
2018-11-14T16:07:57.029Z,88.64
2018-11-14T16:10:26.828Z,88.82
2018-11-14T16:12:55.681Z,88.25
2018-11-14T16:15:27.748Z,88.44
2018-11-14T16:17:56.557Z,88.26
2018-11-14T16:20:26.143Z,88.32
2018-11-14T16:22:55.479Z,88.39
2018-11-14T16:25:25.182Z,88.55
2018-11-14T16:27:55.546Z,88.58
2018-11-14T16:30:26.171Z,88.53
2018-11-14T16:32:56.307Z,89.21
2018-11-14T16:35:25.329Z,88.74
2018-11-14T16:37:54.219Z,88.85
2018-11-14T16:40:25.256Z,88.97
2018-11-14T16:42:55.285Z,89.41
2018-11-14T16:45:24.246Z,89.56
2018-11-14T16:47:53.280Z,89.49
2018-11-14T16:50:23.338Z,89.54
2018-11-14T16:52:52.521Z,89.55
2018-11-14T16:55:22.538Z,89.06
2018-11-14T16:57:52.321Z,89.12
2018-11-14T17:00:23.217Z,89.72
2018-11-14T17:02:52.077Z,89.40
2018-11-14T17:05:22.063Z,89.78
2018-11-14T17:07:50.941Z,89.83
2018-11-14T17:10:21.064Z,89.23
2018-11-14T17:12:51.108Z,89.47
2018-11-14T17:15:21.384Z,89.06
2018-11-14T17:17:50.320Z,89.09
2018-11-14T17:20:20.126Z,89.48
2018-11-14T17:22:49.956Z,88.77
2018-11-14T17:25:19.683Z,88.93
2018-11-14T17:27:49.347Z,88.82
2018-11-14T17:30:20.572Z,89.12
2018-11-14T17:32:49.712Z,88.84
2018-11-14T17:35:19.887Z,89.21
2018-11-14T17:37:49.100Z,89.44
2018-11-14T17:40:22.151Z,88.84
2018-11-14T17:42:51.853Z,88.96
2018-11-14T17:45:23.719Z,88.97
2018-11-14T17:47:53.131Z,89.55
2018-11-14T17:50:24.267Z,89.48
2018-11-14T17:52:53.869Z,89.52
2018-11-14T17:55:23.352Z,89.61
2018-11-14T17:57:52.352Z,89.14
2018-11-14T18:00:24.593Z,89.19
2018-11-14T18:02:54.642Z,89.41
2018-11-14T18:05:25.283Z,89.70
2018-11-14T18:07:54.900Z,89.73
2018-11-14T18:10:25.160Z,89.13
2018-11-14T18:12:54.969Z,89.21
2018-11-14T18:15:23.793Z,89.30
2018-11-14T18:17:53.630Z,90.07
2018-11-14T18:20:23.950Z,90.14
2018-11-14T18:22:53.245Z,89.54
2018-11-14T18:25:22.071Z,89.41
2018-11-14T18:27:51.006Z,89.56
2018-11-14T18:30:21.818Z,89.63
2018-11-14T18:32:51.249Z,90.09
2018-11-14T18:35:20.941Z,90.26
2018-11-14T18:37:50.644Z,90.27
2018-11-14T18:40:20.873Z,90.18
2018-11-14T18:42:50.029Z,90.21
2018-11-14T18:45:25.329Z,89.82
2018-11-14T18:47:54.985Z,90.35
2018-11-14T18:50:24.873Z,90.01
2018-11-14T18:52:54.077Z,89.99
2018-11-14T18:55:24.508Z,90.13
2018-11-14T18:57:53.821Z,90.64
2018-11-14T19:00:27.912Z,90.66
2018-11-14T19:02:57.170Z,90.04
2018-11-14T19:05:26.663Z,90.19
2018-11-14T19:07:55.791Z,90.23
2018-11-14T19:10:27.643Z,90.10
2018-11-14T19:12:58.256Z,90.30
2018-11-14T19:15:29.198Z,90.50
2018-11-14T19:17:58.454Z,90.78
2018-11-14T19:20:29.576Z,90.53
2018-11-14T19:22:59.441Z,90.58
2018-11-14T19:25:30.657Z,90.49
2018-11-14T19:27:59.920Z,90.85
2018-11-14T19:30:30.428Z,90.53
2018-11-14T19:33:00.189Z,91.06
2018-11-14T19:35:29.272Z,90.55
2018-11-14T19:37:58.646Z,91.23
2018-11-14T19:40:30.973Z,90.54
2018-11-14T19:43:01.577Z,90.41
2018-11-14T19:45:36.827Z,90.50
2018-11-14T19:48:07.177Z,90.43
2018-11-14T19:50:36.857Z,90.64
2018-11-14T19:53:06.277Z,90.04
2018-11-14T19:55:36.587Z,90.74
2018-11-14T19:58:06.235Z,90.68
2018-11-14T20:00:37.276Z,90.28
2018-11-14T20:03:07.232Z,90.35
2018-11-14T20:05:36.374Z,90.45
2018-11-14T20:08:05.977Z,90.47
2018-11-14T20:10:35.373Z,90.52
2018-11-14T20:13:04.427Z,91.07
2018-11-14T20:15:35.506Z,90.49
2018-11-14T20:18:04.679Z,90.67
2018-11-14T20:20:36.641Z,90.95
2018-11-14T20:23:06.204Z,90.96
2018-11-14T20:25:35.847Z,90.93
2018-11-14T20:28:05.308Z,90.45
2018-11-14T20:30:36.178Z,90.85
2018-11-14T20:33:07.522Z,90.53
2018-11-14T20:35:36.571Z,90.99
2018-11-14T20:38:06.018Z,90.45
2018-11-14T20:40:37.361Z,90.63
2018-11-14T20:43:07.415Z,90.78
2018-11-14T20:45:36.388Z,90.59
2018-11-14T20:48:05.366Z,90.95
2018-11-14T20:50:34.262Z,90.66
2018-11-14T20:53:04.510Z,90.91
2018-11-14T20:55:34.513Z,90.94
2018-11-14T20:58:03.990Z,90.60
2018-11-14T21:00:34.443Z,91.34
2018-11-14T21:03:03.785Z,90.79
2018-11-14T21:05:32.930Z,90.74
2018-11-14T21:08:02.892Z,91.19
2018-11-14T21:10:33.048Z,91.25
2018-11-14T21:13:02.754Z,90.78
2018-11-14T21:15:34.033Z,91.38
2018-11-14T21:18:03.629Z,90.61
2018-11-14T21:20:32.509Z,91.18
2018-11-14T21:23:01.581Z,91.21
2018-11-14T21:25:30.894Z,90.66
2018-11-14T21:27:59.874Z,90.69
2018-11-14T21:30:29.907Z,90.69
2018-11-14T21:32:58.784Z,90.83
2018-11-14T21:35:30.867Z,91.35
2018-11-14T21:38:00.841Z,91.27
2018-11-14T21:40:29.680Z,90.94
2018-11-14T21:42:58.683Z,90.03
2018-11-14T21:45:28.265Z,90.75
2018-11-14T21:48:02.268Z,91.03
2018-11-14T21:50:31.869Z,91.01
2018-11-14T21:53:00.768Z,90.48
2018-11-14T21:55:29.548Z,90.95
2018-11-14T21:57:58.318Z,90.97
2018-11-14T22:00:33.324Z,90.72
2018-11-14T22:03:02.473Z,90.75
2018-11-14T22:05:31.658Z,90.87
2018-11-14T22:08:00.530Z,91.02
2018-11-14T22:10:29.374Z,90.91
2018-11-14T22:12:58.172Z,91.28
2018-11-14T22:15:28.276Z,91.24
2018-11-14T22:17:57.442Z,90.60
2018-11-14T22:20:27.349Z,90.80
2018-11-14T22:22:56.566Z,90.44
2018-11-14T22:25:27.335Z,91.05
2018-11-14T22:27:56.287Z,90.55
2018-11-14T22:30:30.031Z,90.22
2018-11-14T22:32:58.970Z,90.48
2018-11-14T22:35:29.258Z,90.20
2018-11-14T22:37:58.706Z,90.34
2018-11-14T22:40:29.031Z,90.38
2018-11-14T22:42:57.784Z,90.28
2018-11-14T22:45:27.897Z,90.42
2018-11-14T22:47:56.642Z,90.37
2018-11-14T22:50:25.955Z,90.51
2018-11-14T22:52:54.854Z,90.59
2018-11-14T22:55:24.720Z,91.15
2018-11-14T22:57:54.008Z,90.87
2018-11-14T23:00:28.504Z,91.12
2018-11-14T23:02:59.469Z,90.58
2018-11-14T23:05:28.428Z,91.09
2018-11-14T23:07:57.994Z,90.99
2018-11-14T23:10:27.395Z,90.30
2018-11-14T23:12:56.203Z,90.15
2018-11-14T23:15:25.418Z,90.24
2018-11-14T23:17:54.283Z,90.14
2018-11-14T23:20:23.367Z,90.29
2018-11-14T23:22:53.104Z,90.50
2018-11-14T23:25:22.430Z,90.95
2018-11-14T23:27:52.818Z,90.76
2018-11-14T23:30:22.867Z,90.13
2018-11-14T23:32:52.618Z,90.10
2018-11-14T23:35:25.591Z,90.50
2018-11-14T23:37:55.726Z,90.02
2018-11-14T23:40:24.640Z,90.32
2018-11-14T23:42:53.494Z,89.98
2018-11-14T23:45:23.124Z,89.51
2018-11-14T23:47:52.250Z,89.68
2018-11-14T23:50:23.038Z,89.81
2018-11-14T23:52:53.198Z,89.92
2018-11-14T23:55:23.201Z,90.06
2018-11-14T23:57:52.083Z,90.79
